Time;durP1;ratioP1;P1;durP2;ratioP2;P2;SDS_P1;SDS_P2;PMS_P1;PMS_P2;Temp;Humidity;BMP_temperature;BMP_pressure;BME280_temperature;BME280_humidity;BME280_pressure;Samples;Min_cycle;Max_cycle;Signal;HPM_P1;HPM_P2
2023/12/18 00:01:52;;;;;;;0.15;0.15;;;3.90;99.90;;;;;;4972487;28;20196;-81
2023/12/18 00:04:20;;;;;;;0.25;0.20;;;3.90;99.90;;;;;;4972329;28;20239;-83
2023/12/18 00:06:47;;;;;;;1.20;0.38;;;3.90;99.90;;;;;;4972077;28;20198;-83
2023/12/18 00:09:15;;;;;;;0.57;0.40;;;4.00;99.90;;;;;;4972034;28;20291;-83
2023/12/18 00:11:42;;;;;;;0.80;0.40;;;4.10;99.90;;;;;;4971896;28;20275;-82
2023/12/18 00:14:10;;;;;;;1.02;0.50;;;4.00;99.90;;;;;;4972159;28;20212;-84
2023/12/18 00:16:37;;;;;;;0.85;0.57;;;4.10;99.90;;;;;;4972004;28;20594;-83
2023/12/18 00:19:05;;;;;;;0.68;0.40;;;4.20;99.90;;;;;;4972182;28;20179;-82
2023/12/18 00:21:33;;;;;;;0.32;0.32;;;4.00;99.90;;;;;;4972180;28;20242;-83
2023/12/18 00:24:00;;;;;;;1.42;0.57;;;4.10;99.90;;;;;;4972099;28;20192;-83
2023/12/18 00:26:28;;;;;;;1.00;0.50;;;4.10;99.90;;;;;;4954061;28;20270;-81
2023/12/18 00:28:56;;;;;;;0.80;0.60;;;4.20;99.90;;;;;;4971671;28;20220;-83
2023/12/18 00:31:23;;;;;;;0.98;0.47;;;4.10;99.90;;;;;;4971668;28;20196;-83
2023/12/18 00:33:50;;;;;;;0.80;0.60;;;4.20;99.90;;;;;;4971666;28;20194;-82
2023/12/18 00:36:18;;;;;;;0.70;0.50;;;4.10;99.90;;;;;;4971761;28;20752;-84
2023/12/18 00:38:45;;;;;;;0.47;0.30;;;4.10;99.90;;;;;;4971788;28;20647;-83
2023/12/18 00:41:13;;;;;;;0.47;0.40;;;4.10;99.90;;;;;;4971965;28;20188;-83
2023/12/18 00:43:40;;;;;;;0.60;0.38;;;4.20;99.90;;;;;;4972100;28;20192;-84
2023/12/18 00:46:08;;;;;;;0.35;0.35;;;4.10;99.90;;;;;;4971582;28;20737;-83
2023/12/18 00:48:35;;;;;;;0.40;0.32;;;4.10;99.90;;;;;;4971652;28;20242;-84
2023/12/18 00:51:03;;;;;;;2.92;0.30;;;4.00;99.90;;;;;;4971365;28;20259;-83
2023/12/18 00:53:30;;;;;;;0.30;0.30;;;4.10;99.90;;;;;;4971408;28;20191;-82
2023/12/18 00:55:58;;;;;;;0.30;0.30;;;4.00;99.90;;;;;;4971424;28;20187;-81
2023/12/18 00:58:25;;;;;;;0.32;0.22;;;4.10;99.90;;;;;;4971518;28;20266;-82
2023/12/18 01:00:52;;;;;;;0.47;0.32;;;4.10;99.90;;;;;;4971293;28;20188;-83
2023/12/18 01:03:20;;;;;;;1.13;0.50;;;4.10;99.90;;;;;;4971527;28;20192;-84
2023/12/18 01:05:48;;;;;;;0.30;0.30;;;4.20;99.90;;;;;;4971445;28;20203;-83
2023/12/18 01:08:15;;;;;;;0.70;0.40;;;4.20;99.90;;;;;;4971313;28;20235;-85
2023/12/18 01:10:43;;;;;;;0.43;0.32;;;4.10;99.90;;;;;;4971010;28;20226;-83
2023/12/18 01:13:10;;;;;;;0.70;0.50;;;4.10;99.90;;;;;;4971132;28;20701;-82
2023/12/18 01:15:38;;;;;;;0.60;0.40;;;4.20;99.90;;;;;;4971304;28;20555;-81
2023/12/18 01:18:05;;;;;;;0.68;0.50;;;4.20;99.90;;;;;;4971004;28;20185;-83
2023/12/18 01:20:34;;;;;;;0.50;0.47;;;4.20;99.90;;;;;;4971108;28;20220;-82
2023/12/18 01:23:01;;;;;;;0.60;0.40;;;4.20;99.90;;;;;;4971072;28;20192;-81
2023/12/18 01:25:32;;;;;;;1.23;0.55;;;4.10;99.90;;;;;;4971549;28;20192;-82
2023/12/18 01:27:59;;;;;;;0.80;0.60;;;4.10;99.90;;;;;;4953883;28;20192;-84
2023/12/18 01:30:27;;;;;;;1.05;0.70;;;4.20;99.90;;;;;;4970939;28;20571;-82
2023/12/18 01:32:54;;;;;;;0.68;0.52;;;4.20;99.90;;;;;;4953500;28;20286;-82
2023/12/18 01:35:22;;;;;;;0.95;0.63;;;4.20;99.90;;;;;;4970881;28;20407;-82
2023/12/18 01:37:49;;;;;;;5.25;0.70;;;4.20;99.90;;;;;;4953729;28;20239;-82
2023/12/18 01:40:17;;;;;;;0.52;0.50;;;4.20;99.90;;;;;;4974951;28;20291;-83
2023/12/18 01:42:45;;;;;;;0.95;0.50;;;4.10;99.90;;;;;;4974820;28;20190;-82
2023/12/18 01:45:13;;;;;;;0.82;0.40;;;4.20;99.90;;;;;;4975168;28;20179;-84
2023/12/18 01:47:40;;;;;;;0.70;0.50;;;4.10;99.90;;;;;;4957781;28;20499;-82
2023/12/18 01:50:09;;;;;;;1.83;0.50;;;4.10;99.90;;;;;;4974421;28;20224;-82
2023/12/18 01:52:38;;;;;;;0.50;0.30;;;4.10;99.90;;;;;;4974709;28;20219;-82
2023/12/18 01:55:07;;;;;;;0.90;0.50;;;4.20;99.90;;;;;;4974664;28;20194;-84
2023/12/18 01:57:36;;;;;;;1.27;0.60;;;4.10;99.90;;;;;;4957361;28;20272;-82
2023/12/18 02:00:04;;;;;;;1.10;0.45;;;4.10;99.90;;;;;;4974538;28;20196;-84
2023/12/18 02:02:33;;;;;;;0.93;0.40;;;4.10;99.90;;;;;;4974540;28;20188;-81
2023/12/18 02:05:01;;;;;;;1.17;0.70;;;4.10;99.90;;;;;;4974567;28;20195;-83
2023/12/18 02:07:29;;;;;;;0.68;0.57;;;4.20;99.90;;;;;;4974544;28;20263;-83
2023/12/18 02:09:57;;;;;;;0.40;0.40;;;4.10;99.90;;;;;;4957656;28;20215;-82
2023/12/18 02:12:25;;;;;;;0.60;0.45;;;4.10;99.90;;;;;;4974605;28;20180;-83
2023/12/18 02:14:53;;;;;;;0.47;0.30;;;4.10;99.90;;;;;;4974171;28;20204;-82
2023/12/18 02:17:21;;;;;;;0.32;0.30;;;4.20;99.90;;;;;;4956759;28;20682;-82
2023/12/18 02:19:48;;;;;;;1.00;0.55;;;4.10;99.90;;;;;;4974260;28;20188;-82
2023/12/18 02:22:16;;;;;;;0.80;0.38;;;4.10;99.90;;;;;;4974221;28;20191;-84
2023/12/18 02:24:43;;;;;;;2.28;0.50;;;4.20;99.90;;;;;;4974017;28;20191;-82
2023/12/18 02:27:11;;;;;;;3.90;0.60;;;4.20;99.90;;;;;;4973974;28;20202;-83
2023/12/18 02:29:39;;;;;;;0.85;0.50;;;4.10;99.90;;;;;;4973927;28;20254;-84
2023/12/18 02:32:06;;;;;;;0.73;0.50;;;4.10;99.90;;;;;;4973928;28;20678;-82
2023/12/18 02:34:34;;;;;;;0.70;0.60;;;4.10;99.90;;;;;;4973936;28;20180;-83
2023/12/18 02:37:01;;;;;;;1.10;0.70;;;4.10;99.90;;;;;;4956731;28;20271;-84
2023/12/18 02:39:29;;;;;;;1.98;0.63;;;4.10;99.90;;;;;;4973976;28;20190;-84
2023/12/18 02:41:56;;;;;;;0.70;0.60;;;4.10;99.90;;;;;;4973741;28;20705;-83
2023/12/18 02:44:24;;;;;;;0.60;0.50;;;4.10;99.90;;;;;;4973870;28;20674;-83
2023/12/18 02:46:51;;;;;;;0.82;0.50;;;4.10;99.90;;;;;;4973609;28;20998;-83
2023/12/18 02:49:18;;;;;;;1.58;0.57;;;4.10;99.90;;;;;;4955970;28;20184;-81
2023/12/18 02:51:48;;;;;;;1.00;0.60;;;4.00;99.90;;;;;;4956358;28;20220;-84
2023/12/18 02:54:15;;;;;;;0.60;0.50;;;4.10;99.90;;;;;;4974085;28;20643;-82
2023/12/18 02:56:43;;;;;;;1.52;0.70;;;4.10;99.90;;;;;;4956351;28;20184;-83
2023/12/18 02:59:10;;;;;;;1.35;0.70;;;4.10;99.90;;;;;;4973136;28;20674;-82
2023/12/18 03:01:37;;;;;;;1.67;0.93;;;4.10;99.90;;;;;;4973347;28;20722;-82
2023/12/18 03:04:05;;;;;;;7.55;1.30;;;4.10;99.90;;;;;;4973348;28;20714;-82
2023/12/18 03:06:32;;;;;;;1.25;0.70;;;4.00;99.90;;;;;;4973284;28;20192;-83
2023/12/18 03:09:00;;;;;;;1.40;0.80;;;4.10;99.90;;;;;;4956257;28;20223;-83
2023/12/18 03:11:27;;;;;;;1.17;0.70;;;4.10;99.90;;;;;;4956256;28;20212;-82
2023/12/18 03:13:55;;;;;;;2.30;1.00;;;4.10;99.90;;;;;;4956024;28;20188;-83
2023/12/18 03:16:22;;;;;;;1.50;0.70;;;4.10;99.90;;;;;;4973111;28;20188;-82
2023/12/18 03:18:50;;;;;;;1.60;0.90;;;4.10;99.90;;;;;;4973037;28;20617;-81
2023/12/18 03:21:17;;;;;;;1.70;1.00;;;4.20;99.90;;;;;;4972997;28;20651;-84
2023/12/18 03:23:45;;;;;;;1.40;0.80;;;4.10;99.90;;;;;;4973023;28;20291;-83
2023/12/18 03:26:12;;;;;;;2.38;1.35;;;4.10;99.90;;;;;;4955831;28;20192;-83
2023/12/18 03:28:40;;;;;;;3.03;1.00;;;4.20;99.90;;;;;;4973147;28;20211;-82
2023/12/18 03:31:07;;;;;;;2.20;0.93;;;4.20;99.90;;;;;;4973212;28;20219;-82
2023/12/18 03:33:35;;;;;;;2.63;0.90;;;4.20;99.90;;;;;;4972802;28;20647;-82
2023/12/18 03:36:06;;;;;;;2.67;1.20;;;4.20;99.90;;;;;;4955464;28;20192;-81
2023/12/18 03:38:34;;;;;;;1.88;1.25;;;4.10;99.90;;;;;;4972886;28;20631;-81
2023/12/18 03:41:01;;;;;;;2.67;1.35;;;4.10;99.90;;;;;;4972888;28;20220;-83
2023/12/18 03:43:29;;;;;;;3.42;1.10;;;4.10;99.90;;;;;;4972940;28;20192;-82
2023/12/18 03:45:56;;;;;;;3.15;1.25;;;4.10;99.90;;;;;;4955253;28;20196;-81
2023/12/18 03:48:24;;;;;;;1.98;1.20;;;4.10;99.90;;;;;;4972749;28;20275;-83
2023/12/18 03:50:51;;;;;;;4.05;1.05;;;4.20;99.90;;;;;;4972554;28;20308;-82
2023/12/18 03:53:19;;;;;;;2.08;1.00;;;4.20;99.90;;;;;;4972569;28;20195;-83
2023/12/18 03:55:46;;;;;;;3.13;1.00;;;4.20;99.90;;;;;;4972432;28;20184;-83
2023/12/18 03:58:13;;;;;;;1.67;0.73;;;4.20;99.90;;;;;;4972485;28;20251;-82
2023/12/18 04:00:41;;;;;;;1.95;1.00;;;4.20;99.90;;;;;;4954200;28;20200;-81
2023/12/18 04:03:08;;;;;;;1.88;1.00;;;4.20;99.90;;;;;;4972301;28;20187;-84
2023/12/18 04:05:36;;;;;;;2.03;0.85;;;4.10;99.90;;;;;;4954771;28;20203;-82
2023/12/18 04:08:04;;;;;;;3.08;0.88;;;4.00;99.90;;;;;;4954958;28;20196;-82
2023/12/18 04:10:32;;;;;;;1.70;0.80;;;4.20;99.90;;;;;;4971933;28;20235;-82
2023/12/18 04:12:59;;;;;;;4.35;1.13;;;4.20;99.90;;;;;;4972264;28;20651;-83
2023/12/18 04:15:27;;;;;;;1.77;1.00;;;4.20;99.90;;;;;;4954976;28;20222;-82
2023/12/18 04:17:55;;;;;;;4.85;1.10;;;4.20;99.90;;;;;;4972014;28;20451;-83
2023/12/18 04:20:23;;;;;;;6.88;1.00;;;4.20;99.90;;;;;;4972038;28;20199;-83
2023/12/18 04:22:50;;;;;;;2.40;0.85;;;4.10;99.90;;;;;;4954692;28;20188;-84
2023/12/18 04:25:18;;;;;;;3.65;1.00;;;4.20;99.90;;;;;;4954756;28;20200;-83
2023/12/18 04:27:45;;;;;;;2.70;1.00;;;4.10;99.90;;;;;;4972005;28;20195;-83
2023/12/18 04:30:13;;;;;;;2.05;0.80;;;4.10;99.90;;;;;;4971819;28;20211;-81
2023/12/18 04:32:41;;;;;;;2.47;0.50;;;4.10;99.90;;;;;;4970706;28;20210;-84
2023/12/18 04:35:08;;;;;;;3.60;0.60;;;4.00;99.90;;;;;;4938923;28;20562;-82
2023/12/18 04:37:36;;;;;;;1.98;0.40;;;4.10;99.90;;;;;;4954540;28;20188;-83
2023/12/18 04:40:04;;;;;;;1.50;0.70;;;4.10;99.90;;;;;;4971536;28;20206;-83
2023/12/18 04:42:32;;;;;;;1.00;0.55;;;4.10;99.90;;;;;;4971602;28;20188;-83
2023/12/18 04:44:59;;;;;;;3.50;0.90;;;4.10;99.90;;;;;;4971539;28;20210;-83
2023/12/18 04:47:27;;;;;;;3.58;1.08;;;4.00;99.90;;;;;;4971550;28;20217;-81
2023/12/18 04:49:54;;;;;;;7.95;0.75;;;4.20;99.90;;;;;;4971415;28;20194;-81
2023/12/18 04:52:22;;;;;;;2.22;0.68;;;4.00;99.90;;;;;;4971350;28;21028;-84
2023/12/18 04:54:49;;;;;;;1.35;0.70;;;4.10;99.90;;;;;;4954279;28;20188;-85
2023/12/18 04:57:17;;;;;;;2.03;0.50;;;4.10;99.90;;;;;;4971490;28;20657;-82
2023/12/18 04:59:44;;;;;;;1.50;0.70;;;4.00;99.90;;;;;;4971535;28;20270;-83
2023/12/18 05:02:11;;;;;;;1.67;0.77;;;4.10;99.90;;;;;;4971554;28;20285;-82
2023/12/18 05:04:39;;;;;;;1.85;0.80;;;4.10;99.90;;;;;;4954049;28;20192;-83
2023/12/18 05:07:07;;;;;;;1.45;0.70;;;4.00;99.90;;;;;;4971063;28;20204;-81
2023/12/18 05:09:35;;;;;;;1.10;0.60;;;4.10;99.90;;;;;;4971228;28;20195;-83
2023/12/18 05:12:03;;;;;;;1.73;0.60;;;4.10;99.90;;;;;;4970852;28;20207;-83
2023/12/18 05:14:30;;;;;;;0.82;0.50;;;4.20;99.90;;;;;;4971212;28;20172;-83
2023/12/18 05:16:58;;;;;;;4.00;0.70;;;4.10;99.90;;;;;;4971085;28;20650;-83
2023/12/18 05:19:25;;;;;;;1.65;0.93;;;4.10;99.90;;;;;;4971012;28;20184;-82
2023/12/18 05:21:53;;;;;;;0.75;0.50;;;4.20;99.90;;;;;;4953890;28;20582;-83
2023/12/18 05:24:20;;;;;;;1.67;0.80;;;4.10;99.90;;;;;;4971221;28;20184;-83
2023/12/18 05:26:47;;;;;;;1.92;0.75;;;4.10;99.90;;;;;;4971292;28;20192;-84
2023/12/18 05:29:15;;;;;;;3.80;1.25;;;4.10;99.90;;;;;;4971010;28;20638;-84
2023/12/18 05:31:42;;;;;;;4.30;1.00;;;4.10;99.90;;;;;;4970905;28;20271;-82
2023/12/18 05:34:09;;;;;;;2.03;1.00;;;4.10;99.90;;;;;;4970844;28;20196;-81
2023/12/18 05:36:37;;;;;;;5.05;1.42;;;4.10;99.90;;;;;;4970930;28;20188;-83
2023/12/18 05:39:05;;;;;;;5.95;1.60;;;4.10;99.90;;;;;;4953674;28;20191;-83
2023/12/18 05:41:32;;;;;;;2.70;1.25;;;4.00;99.90;;;;;;4970798;28;20192;-82
2023/12/18 05:43:59;;;;;;;1.92;0.90;;;4.10;99.90;;;;;;4970674;28;20230;-82
2023/12/18 05:46:27;;;;;;;2.17;1.30;;;4.10;99.90;;;;;;4952126;28;20204;-83
2023/12/18 05:48:54;;;;;;;1.63;1.00;;;4.10;99.90;;;;;;4954431;28;20202;-84
2023/12/18 05:51:22;;;;;;;3.97;1.30;;;4.00;99.90;;;;;;4970543;28;20250;-84
2023/12/18 05:53:50;;;;;;;2.22;1.33;;;4.10;99.90;;;;;;4969317;28;20191;-83
2023/12/18 05:56:17;;;;;;;3.55;1.42;;;4.10;99.90;;;;;;4970799;28;20188;-83
2023/12/18 05:58:45;;;;;;;4.57;1.48;;;4.10;99.90;;;;;;4970582;28;20668;-84
2023/12/18 06:01:12;;;;;;;5.93;1.48;;;4.00;99.90;;;;;;4970799;28;20196;-83
2023/12/18 06:03:40;;;;;;;4.03;1.67;;;4.10;99.90;;;;;;4970615;28;20188;-83
2023/12/18 06:06:08;;;;;;;6.07;2.08;;;4.10;99.90;;;;;;4953140;28;20196;-82
2023/12/18 06:08:35;;;;;;;8.18;1.63;;;4.10;99.90;;;;;;4951328;29;20189;-82
2023/12/18 06:11:03;;;;;;;6.95;1.33;;;4.10;99.90;;;;;;4951266;29;20244;-83
2023/12/18 06:13:31;;;;;;;6.50;1.42;;;4.00;99.90;;;;;;4953293;28;20181;-82
2023/12/18 06:16:00;;;;;;;3.10;0.90;;;4.10;99.90;;;;;;4970641;28;20194;-81
2023/12/18 06:18:28;;;;;;;2.20;0.95;;;4.10;99.90;;;;;;4953689;28;20275;-83
2023/12/18 06:20:55;;;;;;;2.50;1.08;;;4.00;99.90;;;;;;4970714;28;20195;-81
2023/12/18 06:23:23;;;;;;;3.78;0.90;;;4.00;99.90;;;;;;4970955;28;20585;-84
2023/12/18 06:25:50;;;;;;;2.72;0.98;;;4.10;99.90;;;;;;4956561;28;20250;-84
2023/12/18 06:28:17;;;;;;;1.70;0.90;;;4.00;99.90;;;;;;4973936;28;20210;-82
2023/12/18 06:30:45;;;;;;;1.73;0.90;;;4.00;99.90;;;;;;4973771;28;20678;-85
2023/12/18 06:33:12;;;;;;;6.95;1.10;;;4.00;99.90;;;;;;4973935;28;20647;-83
2023/12/18 06:35:41;;;;;;;2.55;0.90;;;4.00;99.90;;;;;;4974195;28;20184;-83
2023/12/18 06:38:08;;;;;;;5.20;1.02;;;4.00;99.90;;;;;;4972763;28;20184;-82
2023/12/18 06:40:36;;;;;;;5.65;1.10;;;4.00;99.90;;;;;;4973604;28;20188;-83
2023/12/18 06:43:03;;;;;;;2.47;0.80;;;4.10;99.90;;;;;;4973980;28;20242;-81
2023/12/18 06:45:31;;;;;;;3.28;0.85;;;4.00;99.90;;;;;;4974560;28;20187;-82
2023/12/18 06:47:58;;;;;;;11.70;1.10;;;4.00;99.90;;;;;;4956478;28;20605;-84
2023/12/18 06:50:26;;;;;;;2.95;0.82;;;4.00;99.90;;;;;;4973135;28;20306;-84
2023/12/18 06:52:53;;;;;;;2.58;0.73;;;3.90;99.90;;;;;;4957993;28;20196;-85
2023/12/18 06:55:21;;;;;;;1.83;0.90;;;3.90;99.90;;;;;;4973629;28;20267;-83
2023/12/18 06:57:48;;;;;;;2.35;0.80;;;3.90;99.90;;;;;;4973572;28;20211;-81
2023/12/18 07:00:16;;;;;;;1.40;0.55;;;3.90;99.90;;;;;;4973609;28;20188;-85
2023/12/18 07:02:44;;;;;;;0.85;0.60;;;3.90;99.90;;;;;;4956473;28;20191;-84
2023/12/18 07:05:16;;;;;;;1.00;0.50;;;3.90;99.90;;;;;;4973610;28;20192;-83
2023/12/18 07:07:43;;;;;;;2.08;0.77;;;3.90;99.90;;;;;;4973370;28;20188;-82
2023/12/18 07:10:11;;;;;;;1.85;0.90;;;3.90;99.90;;;;;;4973870;28;20308;-85
2023/12/18 07:12:38;;;;;;;0.90;0.70;;;3.90;99.90;;;;;;4973543;28;20287;-83
2023/12/18 07:15:07;;;;;;;1.45;0.75;;;3.90;99.90;;;;;;4956335;28;20207;-82
2023/12/18 07:17:34;;;;;;;1.08;0.77;;;4.00;99.90;;;;;;4973237;28;20259;-84
2023/12/18 07:20:02;;;;;;;2.22;0.80;;;4.00;99.90;;;;;;4973212;28;20683;-84
2023/12/18 07:22:29;;;;;;;1.08;0.60;;;4.00;99.90;;;;;;4955637;28;20195;-86
2023/12/18 07:24:57;;;;;;;2.80;0.70;;;4.10;99.90;;;;;;4973025;28;20184;-82
2023/12/18 07:27:25;;;;;;;0.70;0.52;;;4.00;99.90;;;;;;4955642;28;20252;-82
2023/12/18 07:29:52;;;;;;;0.73;0.50;;;4.10;99.90;;;;;;4955539;28;20192;-83
2023/12/18 07:32:21;;;;;;;1.35;0.80;;;4.10;99.90;;;;;;4972864;28;20220;-83
2023/12/18 07:34:48;;;;;;;1.83;0.80;;;4.00;99.90;;;;;;4972972;28;20187;-82
2023/12/18 07:37:16;;;;;;;1.00;0.70;;;4.10;99.90;;;;;;4973440;28;20283;-85
2023/12/18 07:39:43;;;;;;;3.50;0.88;;;4.00;99.90;;;;;;4973014;28;20196;-82
2023/12/18 07:42:11;;;;;;;1.17;0.80;;;4.10;99.90;;;;;;4972635;28;20196;-84
2023/12/18 07:44:38;;;;;;;0.52;0.50;;;4.10;99.90;;;;;;4955714;28;20192;-83
2023/12/18 07:47:07;;;;;;;2.25;1.00;;;4.00;99.90;;;;;;4955419;28;20192;-85
2023/12/18 07:49:35;;;;;;;2.25;0.93;;;4.00;99.90;;;;;;4972601;28;20199;-83
2023/12/18 07:52:03;;;;;;;1.85;0.90;;;4.10;99.90;;;;;;4972307;28;20313;-84
2023/12/18 07:54:30;;;;;;;0.63;0.52;;;4.20;99.90;;;;;;4955224;28;20247;-84
2023/12/18 07:56:58;;;;;;;2.53;0.80;;;4.10;99.90;;;;;;4972339;28;20258;-85
2023/12/18 07:59:28;;;;;;;1.45;0.70;;;4.10;99.90;;;;;;4972723;28;20198;-84
2023/12/18 08:01:55;;;;;;;1.05;0.60;;;4.10;99.90;;;;;;4972476;28;20670;-80
2023/12/18 08:04:23;;;;;;;0.82;0.70;;;4.00;99.90;;;;;;4955233;28;20180;-83
2023/12/18 08:06:53;;;;;;;1.38;0.70;;;4.10;99.90;;;;;;4955108;28;20195;-82
2023/12/18 08:09:20;;;;;;;0.73;0.57;;;4.10;99.90;;;;;;4972502;28;20180;-83
2023/12/18 08:11:48;;;;;;;1.02;0.80;;;4.10;99.90;;;;;;4972034;28;20218;-85
2023/12/18 08:14:16;;;;;;;1.42;0.80;;;4.10;99.90;;;;;;4954689;28;20198;-83
2023/12/18 08:16:43;;;;;;;1.13;0.70;;;4.10;99.90;;;;;;4954756;28;20255;-82
2023/12/18 08:19:10;;;;;;;2.08;0.68;;;4.00;99.90;;;;;;4972380;28;20195;-84
2023/12/18 08:21:38;;;;;;;2.15;0.80;;;4.10;99.90;;;;;;4972295;28;20945;-82
2023/12/18 08:24:06;;;;;;;1.17;0.80;;;4.10;99.90;;;;;;4954758;28;20247;-84
2023/12/18 08:26:33;;;;;;;2.08;0.73;;;4.10;99.90;;;;;;4954501;28;20587;-82
2023/12/18 08:29:01;;;;;;;1.75;0.88;;;4.10;99.90;;;;;;4954661;28;20291;-82
2023/12/18 08:31:29;;;;;;;2.35;0.85;;;4.10;99.90;;;;;;4971917;28;20761;-83
2023/12/18 08:33:56;;;;;;;3.95;0.90;;;4.10;99.90;;;;;;4971875;28;20191;-82
2023/12/18 08:36:24;;;;;;;1.17;0.70;;;4.10;99.90;;;;;;4971857;28;20963;-84
2023/12/18 08:38:51;;;;;;;2.65;1.05;;;4.20;99.90;;;;;;4954615;28;20199;-83
2023/12/18 08:41:19;;;;;;;1.65;1.00;;;4.10;99.90;;;;;;4954473;28;20561;-85
2023/12/18 08:43:46;;;;;;;1.40;0.80;;;4.10;99.90;;;;;;4954170;28;20296;-83
2023/12/18 08:46:29;;;;;;;2.08;0.88;;;4.10;99.90;;;;;;4971497;28;20263;-84
2023/12/18 08:48:56;;;;;;;1.85;0.90;;;4.10;99.90;;;;;;4971416;28;20760;-82
2023/12/18 08:51:24;;;;;;;1.20;0.90;;;4.10;99.90;;;;;;4971273;28;20246;-84
2023/12/18 08:53:53;;;;;;;2.03;1.10;;;4.20;99.90;;;;;;4971520;28;20267;-84
2023/12/18 08:56:21;;;;;;;1.75;0.85;;;4.20;99.90;;;;;;4971462;28;20528;-83
2023/12/18 08:58:49;;;;;;;2.08;0.85;;;4.20;99.90;;;;;;4971302;28;20243;-84
2023/12/18 09:01:17;;;;;;;2.65;1.25;;;4.20;99.90;;;;;;4971346;28;20287;-84
2023/12/18 09:03:50;;;;;;;1.60;1.00;;;4.20;99.90;;;;;;4971401;28;20231;-83
2023/12/18 09:06:18;;;;;;;2.83;1.10;;;4.20;99.90;;;;;;4971633;28;20184;-83
2023/12/18 09:08:45;;;;;;;2.08;1.08;;;4.20;99.90;;;;;;4971720;28;20207;-83
2023/12/18 09:11:13;;;;;;;2.47;1.27;;;4.20;99.90;;;;;;4971664;28;20651;-83
2023/12/18 09:13:40;;;;;;;1.75;0.98;;;4.20;99.90;;;;;;4971465;28;20204;-84
2023/12/18 09:16:08;;;;;;;3.08;1.30;;;4.20;99.90;;;;;;4971314;28;20187;-82
2023/12/18 09:18:35;;;;;;;2.00;0.93;;;4.20;99.90;;;;;;4971163;28;20658;-82
2023/12/18 09:21:03;;;;;;;1.60;1.00;;;4.30;99.90;;;;;;4971263;28;20199;-83
2023/12/18 09:23:30;;;;;;;2.03;1.00;;;4.20;99.90;;;;;;4971197;28;20272;-83
2023/12/18 09:25:58;;;;;;;2.17;1.40;;;4.20;99.90;;;;;;4971139;28;20190;-83
2023/12/18 09:28:25;;;;;;;2.40;1.30;;;4.30;99.90;;;;;;4971028;28;20190;-82
2023/12/18 09:30:52;;;;;;;1.70;1.15;;;4.30;99.90;;;;;;4970071;28;20192;-83
2023/12/18 09:33:20;;;;;;;1.65;1.02;;;4.30;99.90;;;;;;4950711;29;20216;-84
2023/12/18 09:35:48;;;;;;;1.98;0.95;;;4.20;99.90;;;;;;4935230;29;20192;-83
2023/12/18 09:38:15;;;;;;;1.73;0.70;;;4.30;99.90;;;;;;4951558;29;20192;-83
2023/12/18 09:40:46;;;;;;;0.95;0.80;;;4.30;99.90;;;;;;4969048;28;20239;-85
2023/12/18 09:43:18;;;;;;;1.25;0.90;;;4.30;99.90;;;;;;4970276;28;20714;-82
2023/12/18 09:45:48;;;;;;;1.70;0.82;;;4.30;99.90;;;;;;4952022;28;20196;-84
2023/12/18 09:48:16;;;;;;;2.75;1.05;;;4.30;99.90;;;;;;4953316;28;20248;-86
2023/12/18 09:50:46;;;;;;;1.67;0.85;;;4.30;99.90;;;;;;4970594;28;20231;-84
2023/12/18 09:53:16;;;;;;;1.73;0.93;;;4.30;99.90;;;;;;4969601;28;20259;-83
2023/12/18 09:55:45;;;;;;;1.70;0.77;;;4.30;99.90;;;;;;4953637;28;20207;-85
2023/12/18 09:58:15;;;;;;;2.88;1.20;;;4.30;99.90;;;;;;4971055;28;20533;-81
2023/12/18 10:00:43;;;;;;;1.80;1.15;;;4.30;99.90;;;;;;4956024;28;20645;-84
2023/12/18 10:03:13;;;;;;;1.27;0.73;;;4.30;99.90;;;;;;4974363;28;20195;-84
2023/12/18 10:05:42;;;;;;;1.33;1.10;;;4.30;99.90;;;;;;4974608;28;20180;-84
2023/12/18 10:08:09;;;;;;;1.45;0.95;;;4.40;99.90;;;;;;4975042;28;20194;-84
2023/12/18 10:10:37;;;;;;;1.95;0.90;;;4.40;99.90;;;;;;4974563;28;20180;-85
2023/12/18 10:13:06;;;;;;;1.30;0.80;;;4.40;99.90;;;;;;4956364;28;20781;-84
2023/12/18 10:15:37;;;;;;;1.42;0.70;;;4.30;99.90;;;;;;4973926;28;20211;-80
2023/12/18 10:18:11;;;;;;;1.73;1.10;;;4.40;99.90;;;;;;4957113;28;20184;-85
2023/12/18 10:20:42;;;;;;;0.73;0.70;;;4.40;99.90;;;;;;4974307;28;20188;-83
2023/12/18 10:23:12;;;;;;;1.00;0.75;;;4.40;99.90;;;;;;4957142;28;20192;-85
2023/12/18 10:25:40;;;;;;;2.17;0.90;;;4.40;99.90;;;;;;4974578;28;20196;-85
2023/12/18 10:28:07;;;;;;;2.05;0.80;;;4.40;99.90;;;;;;4957038;28;20196;-85
2023/12/18 10:30:35;;;;;;;2.03;1.00;;;4.40;99.90;;;;;;4956786;28;20670;-84
2023/12/18 10:33:09;;;;;;;1.25;1.00;;;4.40;99.90;;;;;;4974049;28;20553;-82
2023/12/18 10:35:39;;;;;;;1.58;0.98;;;4.50;99.90;;;;;;4956458;28;20207;-83
2023/12/18 10:38:09;;;;;;;2.03;0.82;;;4.40;99.90;;;;;;4973918;28;20188;-85
2023/12/18 10:40:37;;;;;;;2.25;1.05;;;4.40;99.90;;;;;;4973947;28;20263;-85
2023/12/18 10:43:24;;;;;;;1.13;0.88;;;4.40;99.90;;;;;;4956448;28;20200;-84
2023/12/18 10:45:53;;;;;;;1.77;0.82;;;4.40;99.90;;;;;;4974336;28;20188;-84
2023/12/18 10:48:21;;;;;;;1.45;1.00;;;4.40;99.90;;;;;;4973787;28;20199;-83
2023/12/18 10:50:53;;;;;;;1.92;1.17;;;4.40;99.90;;;;;;4973531;28;20728;-83
2023/12/18 10:53:22;;;;;;;1.40;0.80;;;4.40;99.90;;;;;;4956496;28;20279;-83
2023/12/18 10:55:50;;;;;;;2.63;1.08;;;4.30;99.90;;;;;;4973759;28;20215;-83
2023/12/18 10:58:19;;;;;;;2.05;1.00;;;4.40;99.90;;;;;;4973663;28;20188;-82
2023/12/18 11:00:48;;;;;;;1.98;1.05;;;4.40;99.90;;;;;;4973472;28;20192;-84
2023/12/18 11:03:18;;;;;;;1.20;0.80;;;4.40;99.90;;;;;;4973559;28;20184;-83
2023/12/18 11:05:48;;;;;;;1.67;1.10;;;4.40;99.90;;;;;;4973660;28;20223;-84
2023/12/18 11:08:15;;;;;;;1.35;1.00;;;4.40;99.90;;;;;;4973755;28;20270;-83
2023/12/18 11:10:43;;;;;;;2.10;1.10;;;4.30;99.90;;;;;;4973030;28;20184;-85
2023/12/18 11:13:34;;;;;;;1.83;1.20;;;4.30;99.90;;;;;;4956283;28;20220;-83
2023/12/18 11:16:34;;;;;;;3.25;1.23;;;4.30;99.90;;;;;;4973324;28;20177;-83
2023/12/18 11:19:17;;;;;;;1.75;1.08;;;4.30;99.90;;;;;;4955644;28;20568;-83
2023/12/18 11:21:53;;;;;;;2.20;1.15;;;4.30;99.90;;;;;;4969632;28;20195;-84
2023/12/18 11:24:21;;;;;;;1.70;0.98;;;4.30;99.90;;;;;;4973348;28;20665;-82
2023/12/18 11:26:51;;;;;;;1.33;1.10;;;4.30;99.90;;;;;;4973354;28;20188;-85
2023/12/18 11:29:36;;;;;;;1.13;0.93;;;4.30;99.90;;;;;;4973227;28;20287;-83
2023/12/18 11:32:04;;;;;;;1.67;0.98;;;4.30;99.90;;;;;;4971441;28;20330;-82
2023/12/18 11:34:31;;;;;;;1.48;0.73;;;4.30;99.90;;;;;;4972958;28;20187;-84
2023/12/18 11:36:59;;;;;;;1.83;0.80;;;4.30;99.90;;;;;;4955758;28;20176;-83
2023/12/18 11:39:40;;;;;;;1.50;0.90;;;4.30;99.90;;;;;;4955583;28;20215;-83
2023/12/18 11:42:10;;;;;;;1.23;0.75;;;4.30;99.90;;;;;;4955385;28;20203;-83
2023/12/18 11:44:39;;;;;;;1.42;0.77;;;4.30;99.90;;;;;;4972633;28;20194;-83
2023/12/18 11:47:07;;;;;;;1.50;0.95;;;4.30;99.90;;;;;;4972957;28;20191;-81
2023/12/18 11:49:36;;;;;;;2.75;0.90;;;4.30;99.90;;;;;;4971342;28;20202;-84
2023/12/18 11:52:20;;;;;;;3.47;0.88;;;4.30;99.90;;;;;;4951898;29;20236;-83
2023/12/18 11:54:48;;;;;;;2.58;0.60;;;4.30;99.90;;;;;;4952002;29;20219;-84
2023/12/18 11:57:20;;;;;;;0.68;0.52;;;4.30;99.90;;;;;;4952127;29;20187;-83
2023/12/18 11:59:49;;;;;;;1.13;0.65;;;4.30;99.90;;;;;;4951933;29;20176;-82
2023/12/18 12:02:16;;;;;;;0.55;0.55;;;4.30;99.90;;;;;;4953162;29;20615;-83
2023/12/18 12:04:45;;;;;;;1.23;0.60;;;4.30;99.90;;;;;;4945664;29;20197;-85
2023/12/18 12:07:12;;;;;;;1.48;0.77;;;4.30;99.90;;;;;;4934179;29;20244;-83
2023/12/18 12:09:43;;;;;;;1.90;0.80;;;4.30;99.90;;;;;;4916943;29;20747;-83
2023/12/18 12:12:13;;;;;;;1.17;0.77;;;4.30;99.90;;;;;;4933869;29;20233;-83
2023/12/18 12:14:41;;;;;;;1.30;0.80;;;4.30;99.90;;;;;;4933825;29;20663;-82
2023/12/18 12:17:09;;;;;;;1.88;0.65;;;4.30;99.90;;;;;;4933772;29;20189;-83
2023/12/18 12:19:36;;;;;;;1.60;0.80;;;4.30;99.90;;;;;;4933684;29;20212;-82
2023/12/18 12:22:04;;;;;;;1.70;0.90;;;4.30;99.90;;;;;;4932889;29;20196;-84
2023/12/18 12:24:33;;;;;;;1.75;0.85;;;4.30;99.90;;;;;;4932252;29;20185;-84
2023/12/18 12:27:00;;;;;;;1.73;0.70;;;4.30;99.90;;;;;;4933510;29;20272;-84
2023/12/18 12:29:29;;;;;;;1.25;0.90;;;4.30;99.90;;;;;;4948280;29;20228;-83
2023/12/18 12:31:57;;;;;;;1.58;1.08;;;4.30;99.90;;;;;;4933584;29;20189;-83
2023/12/18 12:34:36;;;;;;;1.25;0.90;;;4.40;99.90;;;;;;4964062;28;20728;-83
2023/12/18 12:37:05;;;;;;;1.27;0.85;;;4.30;99.90;;;;;;4951343;28;20195;-83
2023/12/18 12:39:32;;;;;;;1.75;0.80;;;4.30;99.90;;;;;;4951767;28;20519;-82
2023/12/18 12:42:00;;;;;;;1.17;0.80;;;4.20;99.90;;;;;;4952852;28;20204;-83
2023/12/18 12:44:28;;;;;;;1.23;0.60;;;4.20;99.90;;;;;;4951272;28;20196;-84
2023/12/18 12:46:55;;;;;;;0.98;0.70;;;4.20;99.90;;;;;;4948564;29;20682;-83
2023/12/18 12:49:23;;;;;;;0.95;0.77;;;4.20;99.90;;;;;;4953111;29;20239;-83
2023/12/18 12:51:50;;;;;;;1.80;1.00;;;4.20;99.90;;;;;;4966385;28;20254;-85
2023/12/18 12:54:19;;;;;;;1.30;0.82;;;4.20;99.90;;;;;;4954014;28;20311;-84
2023/12/18 12:56:47;;;;;;;1.45;0.70;;;4.20;99.90;;;;;;4954197;28;20549;-83
2023/12/18 12:59:14;;;;;;;1.15;0.80;;;4.20;99.90;;;;;;4971543;28;20230;-84
2023/12/18 13:01:42;;;;;;;1.17;0.73;;;4.20;99.90;;;;;;4971111;28;20924;-82
2023/12/18 13:04:12;;;;;;;1.13;0.80;;;4.30;99.90;;;;;;4971131;28;20192;-83